Time;durP1;ratioP1;P1;durP2;ratioP2;P2;SDS_P1;SDS_P2;PMS_P1;PMS_P2;Temp;Humidity;BMP_temperature;BMP_pressure;BME280_temperature;BME280_humidity;BME280_pressure;Samples;Min_cycle;Max_cycle;Signal;HPM_P1;HPM_P2
2022/04/21 00:00:41;;;;;;;;;7.25;7.25;;;;;;;;1547615;28;84064;-67
2022/04/21 00:01:26;;;;;;;;;9.67;9.67;;;;;;;;1542169;28;83849;-67
2022/04/21 00:02:12;;;;;;;;;10.00;10.00;;;;;;;;1542201;28;83852;-67
2022/04/21 00:02:57;;;;;;;;;9.33;9.33;;;;;;;;1543901;28;84028;-67
2022/04/21 00:03:42;;;;;;;;;10.33;9.00;;;;;;;;1548102;28;83944;-68
2022/04/21 00:04:27;;;;;;;;;8.33;8.33;;;;;;;;1548173;28;83997;-68
2022/04/21 00:05:13;;;;;;;;;9.00;9.00;;;;;;;;1548291;28;83228;-68
2022/04/21 00:05:58;;;;;;;;;9.00;9.00;;;;;;;;1548203;28;83988;-68
2022/04/21 00:06:44;;;;;;;;;8.33;8.33;;;;;;;;1548089;28;83865;-68
2022/04/21 00:07:30;;;;;;;;;8.75;8.75;;;;;;;;1548212;28;83920;-68
2022/04/21 00:08:17;;;;;;;;;8.67;8.67;;;;;;;;1548148;28;83682;-68
2022/04/21 00:09:02;;;;;;;;;6.50;6.50;;;;;;;;1548087;28;83992;-68
2022/04/21 00:09:47;;;;;;;;;9.33;9.33;;;;;;;;1548167;28;83895;-68
2022/04/21 00:10:32;;;;;;;;;7.33;7.33;;;;;;;;1550868;28;83931;-68
2022/04/21 00:11:18;;;;;;;;;9.00;9.00;;;;;;;;1548339;28;83264;-68
2022/04/21 00:12:03;;;;;;;;;7.33;7.33;;;;;;;;1548168;28;83579;-68
2022/04/21 00:12:48;;;;;;;;;8.67;8.67;;;;;;;;1548139;28;83219;-68
2022/04/21 00:13:35;;;;;;;;;10.00;10.00;;;;;;;;1547834;28;83267;-68
2022/04/21 00:14:20;;;;;;;;;5.50;5.50;;;;;;;;1548076;28;83423;-67
2022/04/21 00:15:06;;;;;;;;;9.00;9.00;;;;;;;;1546655;28;83410;-67
2022/04/21 00:15:51;;;;;;;;;10.67;10.67;;;;;;;;1548029;28;83469;-67
2022/04/21 00:16:36;;;;;;;;;11.67;11.67;;;;;;;;1548000;28;83476;-67
2022/04/21 00:17:22;;;;;;;;;10.00;10.00;;;;;;;;1547971;28;83503;-67
2022/04/21 00:18:07;;;;;;;;;8.00;8.00;;;;;;;;1547731;28;83546;-67
2022/04/21 00:18:52;;;;;;;;;9.33;9.33;;;;;;;;1548005;28;83456;-67
2022/04/21 00:19:38;;;;;;;;;8.67;8.67;;;;;;;;1548061;28;83487;-67
2022/04/21 00:20:23;;;;;;;;;10.33;10.33;;;;;;;;1548204;28;83236;-67
2022/04/21 00:21:08;;;;;;;;;9.33;9.33;;;;;;;;1547906;28;83287;-67
2022/04/21 00:24:01;;;;;;;;;12.50;12.50;;;;;;;;1548010;28;83221;-67
2022/04/21 00:24:46;;;;;;;;;13.00;13.00;;;;;;;;1548014;28;83481;-67
2022/04/21 00:25:31;;;;;;;;;10.67;10.67;;;;;;;;1548007;28;83658;-67
2022/04/21 00:26:17;;;;;;;;;8.00;8.00;;;;;;;;1548137;28;83360;-67
2022/04/21 00:27:02;;;;;;;;;9.00;9.00;;;;;;;;1548024;28;83509;-67
2022/04/21 00:27:47;;;;;;;;;10.33;10.33;;;;;;;;1547032;28;83380;-67
2022/04/21 00:28:33;;;;;;;;;8.33;8.33;;;;;;;;1547857;28;84386;-67
2022/04/21 00:29:18;;;;;;;;;9.00;9.00;;;;;;;;1547919;28;83375;-67
2022/04/21 00:30:06;;;;;;;;;11.33;10.67;;;;;;;;1548064;28;83543;-67
2022/04/21 00:30:51;;;;;;;;;9.25;9.25;;;;;;;;1547837;28;83452;-67
2022/04/21 00:31:37;;;;;;;;;9.67;9.67;;;;;;;;1547933;28;83479;-67
2022/04/21 00:32:22;;;;;;;;;7.67;7.67;;;;;;;;1548133;28;83376;-67
2022/04/21 00:33:07;;;;;;;;;8.67;8.67;;;;;;;;1549168;28;83355;-67
2022/04/21 00:33:52;;;;;;;;;8.67;8.67;;;;;;;;1546733;28;83651;-67
2022/04/21 00:34:37;;;;;;;;;11.33;11.33;;;;;;;;1547900;28;83299;-67
2022/04/21 00:35:23;;;;;;;;;10.33;10.33;;;;;;;;1548094;28;83450;-67
2022/04/21 00:36:09;;;;;;;;;10.33;10.33;;;;;;;;1547971;28;83457;-67
2022/04/21 00:36:54;;;;;;;;;4.50;4.50;;;;;;;;1547667;28;83606;-68
2022/04/21 00:37:50;;;;;;;;;7.67;7.67;;;;;;;;1548068;28;83286;-68
2022/04/21 00:38:35;;;;;;;;;8.50;8.50;;;;;;;;1548112;28;83721;-67
2022/04/21 00:39:20;;;;;;;;;5.33;4.33;;;;;;;;1548122;28;83538;-67
2022/04/21 00:40:06;;;;;;;;;11.67;10.33;;;;;;;;1547778;28;83296;-67
2022/04/21 00:40:51;;;;;;;;;9.67;9.67;;;;;;;;1547920;28;83411;-67
2022/04/21 00:41:36;;;;;;;;;11.33;11.00;;;;;;;;1547965;28;83470;-67
2022/04/21 00:42:21;;;;;;;;;10.00;10.00;;;;;;;;1548064;28;83353;-67
2022/04/21 00:43:07;;;;;;;;;10.00;10.00;;;;;;;;1546462;28;83590;-67
2022/04/21 00:43:52;;;;;;;;;5.33;5.33;;;;;;;;1547614;28;83956;-67
2022/04/21 00:44:37;;;;;;;;;10.00;10.00;;;;;;;;1548021;28;83424;-67
2022/04/21 00:45:23;;;;;;;;;8.33;6.00;;;;;;;;1548001;28;83643;-67
2022/04/21 00:46:12;;;;;;;;;8.33;8.33;;;;;;;;1548044;28;83496;-67
2022/04/21 00:47:00;;;;;;;;;10.25;10.25;;;;;;;;1547916;28;83594;-67
2022/04/21 00:47:46;;;;;;;;;9.75;9.75;;;;;;;;1547360;28;83512;-67
2022/04/21 00:48:32;;;;;;;;;6.75;6.75;;;;;;;;1547607;28;83322;-67
2022/04/21 00:49:17;;;;;;;;;6.67;6.67;;;;;;;;1548186;28;83466;-67
2022/04/21 00:50:03;;;;;;;;;11.67;11.67;;;;;;;;1547984;28;83428;-67
2022/04/21 00:50:48;;;;;;;;;11.00;11.00;;;;;;;;1547831;28;83888;-68
2022/04/21 00:51:34;;;;;;;;;11.00;11.00;;;;;;;;1547925;28;83390;-68
2022/04/21 00:52:19;;;;;;;;;9.33;9.33;;;;;;;;1547893;28;83353;-68
2022/04/21 00:53:06;;;;;;;;;9.00;9.00;;;;;;;;1547866;28;83338;-68
2022/04/21 00:53:51;;;;;;;;;8.75;8.75;;;;;;;;1546779;28;83603;-68
2022/04/21 00:54:37;;;;;;;;;11.67;11.67;;;;;;;;1550633;28;83613;-68
2022/04/21 00:55:22;;;;;;;;;9.33;9.33;;;;;;;;1547983;28;83723;-68
2022/04/21 00:56:09;;;;;;;;;8.00;8.00;;;;;;;;1547959;28;83052;-68
2022/04/21 00:56:55;;;;;;;;;7.75;7.75;;;;;;;;1547886;28;83936;-68
2022/04/21 00:57:41;;;;;;;;;8.67;8.67;;;;;;;;1547953;28;85112;-68
2022/04/21 00:58:26;;;;;;;;;11.00;11.00;;;;;;;;1547699;28;83995;-68
2022/04/21 00:59:12;;;;;;;;;8.33;8.33;;;;;;;;1546050;28;83896;-67
2022/04/21 00:59:58;;;;;;;;;9.67;9.67;;;;;;;;1547989;28;84010;-67
2022/04/21 01:00:43;;;;;;;;;12.00;12.00;;;;;;;;1547892;28;83943;-67
2022/04/21 01:02:52;;;;;;;;;13.75;13.75;;;;;;;;1547752;28;83057;-67
2022/04/21 01:03:38;;;;;;;;;12.00;12.00;;;;;;;;1547800;28;83979;-67
2022/04/21 01:04:24;;;;;;;;;13.00;13.00;;;;;;;;1547888;28;83932;-67
2022/04/21 01:05:10;;;;;;;;;15.75;13.25;;;;;;;;1547781;28;83929;-67
2022/04/21 01:05:55;;;;;;;;;9.75;9.75;;;;;;;;1547730;28;83827;-67
2022/04/21 01:06:41;;;;;;;;;5.00;5.00;;;;;;;;1547882;28;83783;-68
2022/04/21 01:07:26;;;;;;;;;10.67;10.67;;;;;;;;1548045;28;83408;-68
2022/04/21 01:08:12;;;;;;;;;10.00;10.00;;;;;;;;1547787;28;83291;-68
2022/04/21 01:08:57;;;;;;;;;8.67;8.67;;;;;;;;1546642;28;83887;-67
2022/04/21 01:09:42;;;;;;;;;9.33;9.33;;;;;;;;1547822;28;83896;-67
2022/04/21 01:10:28;;;;;;;;;12.33;12.33;;;;;;;;1546938;28;83000;-67
2022/04/21 01:11:16;;;;;;;;;10.25;10.25;;;;;;;;1547789;28;85798;-67
2022/04/21 01:12:02;;;;;;;;;8.75;8.75;;;;;;;;1547770;28;83999;-67
2022/04/21 01:12:48;;;;;;;;;9.00;9.00;;;;;;;;1547554;28;83990;-67
2022/04/21 01:13:34;;;;;;;;;10.50;10.50;;;;;;;;1549196;28;85053;-67
2022/04/21 01:14:20;;;;;;;;;12.75;12.00;;;;;;;;1548422;28;83135;-67
2022/04/21 01:15:06;;;;;;;;;9.75;9.75;;;;;;;;1547723;28;83967;-67
2022/04/21 01:15:51;;;;;;;;;10.00;10.00;;;;;;;;1547988;28;84114;-67
2022/04/21 01:16:36;;;;;;;;;9.67;9.67;;;;;;;;1547625;28;83877;-67
2022/04/21 01:17:34;;;;;;;;;11.00;11.00;;;;;;;;1550101;28;83460;-67
2022/04/21 01:18:27;;;;;;;;;12.75;12.75;;;;;;;;1547804;28;83383;-67
2022/04/21 01:19:12;;;;;;;;;9.25;9.25;;;;;;;;1547706;28;83514;-67
2022/04/21 01:19:57;;;;;;;;;13.00;12.00;;;;;;;;1547869;28;83332;-67
2022/04/21 01:20:42;;;;;;;;;10.67;10.67;;;;;;;;1547667;28;83504;-67
2022/04/21 01:21:28;;;;;;;;;9.33;9.33;;;;;;;;1547910;28;83195;-67
2022/04/21 01:22:13;;;;;;;;;11.33;11.33;;;;;;;;1547770;28;83474;-67
2022/04/21 01:22:58;;;;;;;;;10.67;10.67;;;;;;;;1547641;28;83625;-67
2022/04/21 01:23:43;;;;;;;;;10.67;10.67;;;;;;;;1547011;28;83432;-67
2022/04/21 01:24:28;;;;;;;;;12.00;12.00;;;;;;;;1547785;28;83247;-67
2022/04/21 01:25:14;;;;;;;;;12.67;12.67;;;;;;;;1547687;28;83324;-67
2022/04/21 01:26:01;;;;;;;;;9.33;9.33;;;;;;;;1542281;28;83526;-67
2022/04/21 01:26:47;;;;;;;;;8.25;8.25;;;;;;;;1541783;28;83250;-67
2022/04/21 01:27:34;;;;;;;;;8.50;8.50;;;;;;;;1541430;28;83258;-67
2022/04/21 01:28:20;;;;;;;;;11.00;11.00;;;;;;;;1541677;28;83378;-67
2022/04/21 01:29:05;;;;;;;;;9.33;9.00;;;;;;;;1544857;28;84379;-67
2022/04/21 01:29:50;;;;;;;;;11.00;11.00;;;;;;;;1547753;28;83474;-67
2022/04/21 01:30:36;;;;;;;;;9.00;9.00;;;;;;;;1547774;28;83784;-67
2022/04/21 01:31:24;;;;;;;;;10.33;10.33;;;;;;;;1547994;28;83237;-67
2022/04/21 01:32:09;;;;;;;;;9.25;9.25;;;;;;;;1547663;28;83423;-67
2022/04/21 01:32:54;;;;;;;;;11.33;11.33;;;;;;;;1547700;28;83517;-67
2022/04/21 01:33:40;;;;;;;;;9.00;9.00;;;;;;;;1547611;28;83557;-67
2022/04/21 01:34:26;;;;;;;;;10.00;10.00;;;;;;;;1547795;28;83390;-67
2022/04/21 01:35:11;;;;;;;;;10.67;10.00;;;;;;;;1547670;28;83355;-68
2022/04/21 01:35:57;;;;;;;;;13.00;13.00;;;;;;;;1547686;28;83494;-68
2022/04/21 01:41:09;;;;;;;;;9.75;9.75;;;;;;;;1543734;28;83496;-67
2022/04/21 01:41:54;;;;;;;;;12.50;12.50;;;;;;;;1541243;28;83510;-67
2022/04/21 01:42:40;;;;;;;;;11.33;11.00;;;;;;;;1541067;28;83473;-67
2022/04/21 01:43:25;;;;;;;;;12.67;10.67;;;;;;;;1541641;28;83391;-67
2022/04/21 01:44:11;;;;;;;;;14.00;14.00;;;;;;;;1547580;28;83422;-67
2022/04/21 01:44:56;;;;;;;;;5.67;5.67;;;;;;;;1547566;28;83559;-67
2022/04/21 01:45:43;;;;;;;;;10.67;10.67;;;;;;;;1547749;28;83664;-67
2022/04/21 01:46:28;;;;;;;;;9.50;9.50;;;;;;;;1547827;28;83444;-67
2022/04/21 01:47:13;;;;;;;;;13.00;13.00;;;;;;;;1547706;28;83387;-67
2022/04/21 01:47:58;;;;;;;;;13.00;13.00;;;;;;;;1547545;28;83375;-67
2022/04/21 01:48:44;;;;;;;;;11.00;11.00;;;;;;;;1547637;28;83610;-67
2022/04/21 01:49:29;;;;;;;;;13.67;13.67;;;;;;;;1547841;28;83488;-67
2022/04/21 01:50:14;;;;;;;;;10.33;10.33;;;;;;;;1547525;28;83522;-67
2022/04/21 01:50:59;;;;;;;;;14.33;14.33;;;;;;;;1547611;28;83708;-67
2022/04/21 01:51:44;;;;;;;;;11.67;10.67;;;;;;;;1547023;28;83135;-67
2022/04/21 01:52:30;;;;;;;;;11.00;11.00;;;;;;;;1547799;28;83406;-67
2022/04/21 01:53:16;;;;;;;;;12.25;12.25;;;;;;;;1547204;28;83391;-67
2022/04/21 01:54:01;;;;;;;;;13.00;13.00;;;;;;;;1547396;28;83681;-67
2022/04/21 01:54:50;;;;;;;;;12.67;12.67;;;;;;;;1546519;28;83577;-67
2022/04/21 01:55:35;;;;;;;;;12.25;12.25;;;;;;;;1541459;28;83482;-67
2022/04/21 01:56:21;;;;;;;;;10.67;10.67;;;;;;;;1541115;28;83649;-67
2022/04/21 01:57:06;;;;;;;;;10.67;10.67;;;;;;;;1541458;28;83189;-67
2022/04/21 01:57:51;;;;;;;;;12.00;12.00;;;;;;;;1541524;28;83285;-67
2022/04/21 01:58:37;;;;;;;;;12.00;12.00;;;;;;;;1543802;28;83426;-67
2022/04/21 01:59:22;;;;;;;;;13.67;13.67;;;;;;;;1547728;28;83474;-67
2022/04/21 02:00:08;;;;;;;;;10.00;10.00;;;;;;;;1547739;28;83413;-67
2022/04/21 02:00:53;;;;;;;;;15.67;15.67;;;;;;;;1542314;28;83619;-67
2022/04/21 02:01:38;;;;;;;;;13.00;13.00;;;;;;;;1545216;28;83068;-67
2022/04/21 02:02:23;;;;;;;;;13.00;13.00;;;;;;;;1542600;28;83958;-67
2022/04/21 02:03:09;;;;;;;;;10.00;10.00;;;;;;;;1546034;28;83947;-67
2022/04/21 02:03:54;;;;;;;;;10.33;9.33;;;;;;;;1548657;28;83867;-67
2022/04/21 02:04:39;;;;;;;;;10.33;10.33;;;;;;;;1548820;28;83740;-67
2022/04/21 02:05:25;;;;;;;;;10.50;10.50;;;;;;;;1548624;28;83910;-67
2022/04/21 02:06:12;;;;;;;;;11.33;11.33;;;;;;;;1548625;28;83905;-67
2022/04/21 02:06:57;;;;;;;;;11.50;11.50;;;;;;;;1548635;28;83012;-67
2022/04/21 02:07:44;;;;;;;;;13.00;13.00;;;;;;;;1548660;28;83941;-67
2022/04/21 02:08:29;;;;;;;;;9.50;9.50;;;;;;;;1548057;28;84109;-67
2022/04/21 02:09:14;;;;;;;;;10.67;10.67;;;;;;;;1548697;28;83210;-67
2022/04/21 02:10:00;;;;;;;;;12.33;12.33;;;;;;;;1548628;28;83888;-67
2022/04/21 02:10:45;;;;;;;;;15.00;15.00;;;;;;;;1548283;28;83963;-67
2022/04/21 02:11:30;;;;;;;;;11.67;11.67;;;;;;;;1548789;28;82899;-67
2022/04/21 02:12:16;;;;;;;;;13.67;13.67;;;;;;;;1548500;28;83183;-67
2022/04/21 02:13:02;;;;;;;;;11.00;11.00;;;;;;;;1548648;28;84012;-67
2022/04/21 02:13:47;;;;;;;;;13.00;13.00;;;;;;;;1547237;28;83479;-67
2022/04/21 02:14:33;;;;;;;;;12.00;12.00;;;;;;;;1548597;28;83928;-67
2022/04/21 02:15:19;;;;;;;;;12.00;12.00;;;;;;;;1548598;28;84005;-67
2022/04/21 02:16:05;;;;;;;;;11.25;11.25;;;;;;;;1548170;28;83101;-67
2022/04/21 02:16:50;;;;;;;;;11.00;11.00;;;;;;;;1546511;28;83173;-67
2022/04/21 02:17:36;;;;;;;;;13.33;13.33;;;;;;;;1542554;28;83845;-67
2022/04/21 02:18:21;;;;;;;;;9.33;9.33;;;;;;;;1542453;28;83814;-67
2022/04/21 02:19:06;;;;;;;;;8.00;8.00;;;;;;;;1542454;28;83958;-67
2022/04/21 02:19:51;;;;;;;;;9.33;9.33;;;;;;;;1542584;28;84028;-67
2022/04/21 02:20:37;;;;;;;;;12.33;12.33;;;;;;;;1547308;28;83207;-67
2022/04/21 02:21:22;;;;;;;;;11.33;11.33;;;;;;;;1548626;28;83182;-67
2022/04/21 02:22:07;;;;;;;;;11.00;11.00;;;;;;;;1548519;28;83439;-67
2022/04/21 02:22:52;;;;;;;;;7.33;7.33;;;;;;;;1546782;28;83914;-67
2022/04/21 02:23:37;;;;;;;;;10.67;10.67;;;;;;;;1550195;28;83576;-67
2022/04/21 02:24:23;;;;;;;;;6.00;6.00;;;;;;;;1548523;28;83597;-67
2022/04/21 02:25:09;;;;;;;;;15.33;14.67;;;;;;;;1548287;28;83363;-67
2022/04/21 02:25:55;;;;;;;;;12.00;12.00;;;;;;;;1548592;28;83381;-67
2022/04/21 02:26:40;;;;;;;;;8.33;8.33;;;;;;;;1548696;28;83739;-67
2022/04/21 02:27:25;;;;;;;;;13.33;11.67;;;;;;;;1548671;28;83380;-67
2022/04/21 02:28:10;;;;;;;;;9.67;9.67;;;;;;;;1547283;28;83481;-67
2022/04/21 02:28:55;;;;;;;;;13.33;13.33;;;;;;;;1548481;28;83394;-67
2022/04/21 02:29:41;;;;;;;;;15.00;13.00;;;;;;;;1548538;28;83200;-67
2022/04/21 02:30:26;;;;;;;;;12.33;12.33;;;;;;;;1548558;28;83394;-67
2022/04/21 02:31:11;;;;;;;;;12.67;12.67;;;;;;;;1548529;28;83359;-67
2022/04/21 02:31:56;;;;;;;;;10.33;10.33;;;;;;;;1548481;28;83446;-67
2022/04/21 02:32:42;;;;;;;;;14.67;14.67;;;;;;;;1548570;28;83607;-67
2022/04/21 02:33:27;;;;;;;;;11.67;11.67;;;;;;;;1547963;28;83624;-67
2022/04/21 02:34:12;;;;;;;;;14.00;14.00;;;;;;;;1548467;28;83401;-67
2022/04/21 02:34:57;;;;;;;;;11.67;11.67;;;;;;;;1546773;28;83475;-67
2022/04/21 02:35:43;;;;;;;;;13.00;13.00;;;;;;;;1541940;28;83394;-67
2022/04/21 02:36:28;;;;;;;;;8.33;8.33;;;;;;;;1542156;28;83680;-67
2022/04/21 02:37:13;;;;;;;;;13.33;13.33;;;;;;;;1542358;28;83485;-67
2022/04/21 02:37:58;;;;;;;;;5.00;5.00;;;;;;;;1542210;28;83485;-67
2022/04/21 02:38:43;;;;;;;;;12.67;12.67;;;;;;;;1542458;28;83540;-67
2022/04/21 02:39:29;;;;;;;;;8.67;8.67;;;;;;;;1542259;28;83337;-67
2022/04/21 02:40:14;;;;;;;;;15.00;15.00;;;;;;;;1546945;28;83233;-67
2022/04/21 02:40:59;;;;;;;;;16.00;16.00;;;;;;;;1548406;28;83474;-67
2022/04/21 02:41:45;;;;;;;;;13.00;13.00;;;;;;;;1548481;28;83446;-67
2022/04/21 02:42:30;;;;;;;;;8.67;8.67;;;;;;;;1548621;28;83276;-67
2022/04/21 02:43:16;;;;;;;;;11.67;11.67;;;;;;;;1547301;28;83441;-67
2022/04/21 02:44:01;;;;;;;;;13.33;13.33;;;;;;;;1548380;28;83446;-67
2022/04/21 02:44:46;;;;;;;;;14.67;11.67;;;;;;;;1551230;28;83199;-67
2022/04/21 02:45:32;;;;;;;;;13.00;13.00;;;;;;;;1548527;28;83396;-67
2022/04/21 02:46:17;;;;;;;;;8.67;8.67;;;;;;;;1548359;28;83502;-67
2022/04/21 02:47:03;;;;;;;;;15.33;15.33;;;;;;;;1548354;28;83594;-67
2022/04/21 02:47:49;;;;;;;;;13.25;13.25;;;;;;;;1547950;28;83897;-67
2022/04/21 02:48:34;;;;;;;;;13.00;11.33;;;;;;;;1548385;28;83566;-67
2022/04/21 02:49:19;;;;;;;;;13.00;13.00;;;;;;;;1548371;28;83491;-67
2022/04/21 02:50:05;;;;;;;;;12.67;12.67;;;;;;;;1548422;28;83568;-67
2022/04/21 02:50:51;;;;;;;;;9.00;9.00;;;;;;;;1546751;28;83491;-67
2022/04/21 02:51:36;;;;;;;;;12.67;12.67;;;;;;;;1548548;28;83696;-67
2022/04/21 02:52:21;;;;;;;;;11.33;11.33;;;;;;;;1548421;28;83455;-67
2022/04/21 02:53:07;;;;;;;;;12.33;12.00;;;;;;;;1548431;28;83418;-68
2022/04/21 02:57:22;;;;;;;;;12.00;12.00;;;;;;;;1548534;28;83391;-67
2022/04/21 02:58:08;;;;;;;;;13.50;13.50;;;;;;;;1547769;28;83740;-67
2022/04/21 02:58:53;;;;;;;;;14.00;14.00;;;;;;;;1548368;28;83374;-67
2022/04/21 02:59:40;;;;;;;;;13.33;13.33;;;;;;;;1547138;28;83436;-67
2022/04/21 03:00:25;;;;;;;;;15.25;15.25;;;;;;;;1548239;28;83511;-67
2022/04/21 03:01:10;;;;;;;;;12.00;12.00;;;;;;;;1548413;28;83190;-67
2022/04/21 03:01:57;;;;;;;;;11.33;10.67;;;;;;;;1548092;28;83433;-67
2022/04/21 03:02:42;;;;;;;;;12.00;12.00;;;;;;;;1547274;28;83575;-67
2022/04/21 03:03:27;;;;;;;;;13.67;13.00;;;;;;;;1546545;28;83868;-67
2022/04/21 03:04:13;;;;;;;;;8.33;8.33;;;;;;;;1542226;28;83549;-67
2022/04/21 03:04:58;;;;;;;;;12.00;12.00;;;;;;;;1542299;28;83356;-67
2022/04/21 03:05:43;;;;;;;;;12.67;12.67;;;;;;;;1542259;28;83477;-67
2022/04/21 03:06:28;;;;;;;;;13.33;13.33;;;;;;;;1542210;28;83490;-67
2022/04/21 03:07:14;;;;;;;;;14.33;14.33;;;;;;;;1542102;28;83720;-67
2022/04/21 03:07:59;;;;;;;;;4.33;4.33;;;;;;;;1544980;28;83627;-67
2022/04/21 03:08:44;;;;;;;;;11.00;11.00;;;;;;;;1542009;28;83242;-67
2022/04/21 03:09:30;;;;;;;;;11.00;11.00;;;;;;;;1542263;28;83967;-67
2022/04/21 03:10:15;;;;;;;;;12.33;12.33;;;;;;;;1542022;28;83908;-67
2022/04/21 03:11:00;;;;;;;;;10.67;10.67;;;;;;;;1542053;28;83103;-67
2022/04/21 03:11:48;;;;;;;;;10.00;10.00;;;;;;;;1542257;28;83925;-68
2022/04/21 03:12:33;;;;;;;;;15.00;15.00;;;;;;;;1543248;28;84021;-67
2022/04/21 03:13:19;;;;;;;;;9.67;9.67;;;;;;;;1548095;28;83738;-67
2022/04/21 03:14:04;;;;;;;;;14.33;14.33;;;;;;;;1548094;28;83903;-67
2022/04/21 03:14:49;;;;;;;;;17.67;17.67;;;;;;;;1548329;28;83394;-67
2022/04/21 03:15:34;;;;;;;;;15.00;15.00;;;;;;;;1548391;28;83145;-67
2022/04/21 03:16:19;;;;;;;;;17.67;17.67;;;;;;;;1551791;28;83825;-67
2022/04/21 03:17:05;;;;;;;;;15.00;15.00;;;;;;;;1554471;28;83974;-67
2022/04/21 03:17:50;;;;;;;;;13.33;13.33;;;;;;;;1550763;28;83879;-67
2022/04/21 03:18:35;;;;;;;;;13.33;12.67;;;;;;;;1548445;28;83819;-67
2022/04/21 03:19:20;;;;;;;;;10.00;10.00;;;;;;;;1547445;28;83917;-67
2022/04/21 03:20:06;;;;;;;;;18.33;18.33;;;;;;;;1548212;28;84060;-67
2022/04/21 03:24:21;;;;;;;;;15.25;15.25;;;;;;;;1548193;28;83843;-67
2022/04/21 03:25:07;;;;;;;;;18.50;18.50;;;;;;;;1545518;28;83983;-67
2022/04/21 03:25:53;;;;;;;;;15.25;15.00;;;;;;;;1542131;28;83088;-67
2022/04/21 03:26:38;;;;;;;;;15.00;15.00;;;;;;;;1542204;28;83703;-67
2022/04/21 03:27:23;;;;;;;;;13.33;13.33;;;;;;;;1542971;28;84498;-67
2022/04/21 03:28:08;;;;;;;;;12.67;12.67;;;;;;;;1548115;28;83759;-67
2022/04/21 03:28:54;;;;;;;;;13.33;13.33;;;;;;;;1548339;28;83800;-67
2022/04/21 03:29:39;;;;;;;;;12.67;12.67;;;;;;;;1548421;28;83838;-67
2022/04/21 03:30:24;;;;;;;;;17.33;17.33;;;;;;;;1550886;28;83849;-67
2022/04/21 03:31:10;;;;;;;;;15.67;14.33;;;;;;;;1548192;28;83347;-67
2022/04/21 03:31:55;;;;;;;;;14.00;14.00;;;;;;;;1548187;28;83456;-67
2022/04/21 03:32:41;;;;;;;;;14.00;14.00;;;;;;;;1547932;28;83316;-67
2022/04/21 03:33:26;;;;;;;;;8.67;8.67;;;;;;;;1548250;28;83527;-67
2022/04/21 03:34:15;;;;;;;;;15.00;15.00;;;;;;;;1548225;28;83612;-67
2022/04/21 03:35:01;;;;;;;;;11.00;11.00;;;;;;;;1548157;28;83438;-67
2022/04/21 03:35:46;;;;;;;;;12.67;12.67;;;;;;;;1548320;28;83290;-67
2022/04/21 03:36:33;;;;;;;;;17.33;17.33;;;;;;;;1548244;28;83218;-67
2022/04/21 03:37:19;;;;;;;;;13.50;13.50;;;;;;;;1548192;28;83455;-67
2022/04/21 03:38:04;;;;;;;;;11.75;11.75;;;;;;;;1547876;28;83397;-67
2022/04/21 03:38:49;;;;;;;;;12.67;12.67;;;;;;;;1548338;28;83374;-67
2022/04/21 03:39:35;;;;;;;;;13.00;13.00;;;;;;;;1548148;28;83304;-67
2022/04/21 03:40:21;;;;;;;;;13.33;13.33;;;;;;;;1548115;28;83522;-68
2022/04/21 03:41:06;;;;;;;;;15.25;15.25;;;;;;;;1548014;28;83355;-68
2022/04/21 03:41:55;;;;;;;;;13.33;13.33;;;;;;;;1548206;28;83205;-68
2022/04/21 03:42:40;;;;;;;;;11.00;9.00;;;;;;;;1547696;28;83357;-68
2022/04/21 03:43:25;;;;;;;;;18.33;16.00;;;;;;;;1548274;28;83590;-68
2022/04/21 03:44:11;;;;;;;;;12.33;12.33;;;;;;;;1548173;28;83488;-68
2022/04/21 03:44:56;;;;;;;;;13.33;13.33;;;;;;;;1548161;28;83170;-67
2022/04/21 03:45:41;;;;;;;;;12.00;12.00;;;;;;;;1548337;28;83519;-67
2022/04/21 03:46:26;;;;;;;;;15.33;15.33;;;;;;;;1548148;28;83482;-67
2022/04/21 03:47:12;;;;;;;;;13.67;13.67;;;;;;;;1546865;28;83256;-67
2022/04/21 03:47:58;;;;;;;;;14.67;14.67;;;;;;;;1547833;28;83310;-67
2022/04/21 03:48:43;;;;;;;;;12.25;12.25;;;;;;;;1548253;28;83422;-67
2022/04/21 03:49:29;;;;;;;;;18.67;17.00;;;;;;;;1548060;28;83116;-67
2022/04/21 03:50:14;;;;;;;;;20.50;19.25;;;;;;;;1548017;28;83896;-67
2022/04/21 03:50:59;;;;;;;;;15.00;15.00;;;;;;;;1547996;28;83746;-67
2022/04/21 03:51:45;;;;;;;;;13.33;13.33;;;;;;;;1548316;28;83302;-67
2022/04/21 03:52:30;;;;;;;;;12.67;12.67;;;;;;;;1550570;28;83418;-67
2022/04/21 03:53:16;;;;;;;;;12.33;12.33;;;;;;;;1547892;28;83194;-67
2022/04/21 03:54:01;;;;;;;;;15.25;15.25;;;;;;;;1547990;28;83498;-67
2022/04/21 03:54:47;;;;;;;;;17.00;17.00;;;;;;;;1548268;28;83232;-67
2022/04/21 03:55:32;;;;;;;;;15.67;15.67;;;;;;;;1548204;28;83890;-67
2022/04/21 03:56:17;;;;;;;;;11.67;11.67;;;;;;;;1547981;28;83409;-67
2022/04/21 03:57:02;;;;;;;;;18.00;17.67;;;;;;;;1546205;28;83352;-67
2022/04/21 03:57:48;;;;;;;;;12.33;12.33;;;;;;;;1542324;28;83404;-67
2022/04/21 03:58:33;;;;;;;;;12.33;12.33;;;;;;;;1542056;28;83703;-67
2022/04/21 03:59:18;;;;;;;;;19.00;19.00;;;;;;;;1541908;28;83872;-67
2022/04/21 04:00:04;;;;;;;;;15.00;15.00;;;;;;;;1541986;28;83424;-67
2022/04/21 04:00:49;;;;;;;;;17.00;17.00;;;;;;;;1542039;28;83625;-67
2022/04/21 04:01:34;;;;;;;;;18.00;18.00;;;;;;;;1541984;28;83639;-67
2022/04/21 04:02:19;;;;;;;;;13.33;13.33;;;;;;;;1544211;28;83346;-67
2022/04/21 04:03:06;;;;;;;;;13.00;13.00;;;;;;;;1548095;28;83405;-67
2022/04/21 04:03:51;;;;;;;;;12.25;12.25;;;;;;;;1548115;28;83400;-67
2022/04/21 04:04:37;;;;;;;;;15.00;15.00;;;;;;;;1548165;28;83359;-67
2022/04/21 04:05:22;;;;;;;;;13.33;13.33;;;;;;;;1548059;28;83564;-67
2022/04/21 04:10:51;;;;;;;;;17.33;17.33;;;;;;;;1548108;28;83592;-67
2022/04/21 04:11:28;;;;;;;;;15.25;15.25;;;;;;;;1548098;28;83471;-67
2022/04/21 04:12:13;;;;;;;;;15.67;15.67;;;;;;;;1547519;28;83582;-68
2022/04/21 04:12:58;;;;;;;;;14.33;14.33;;;;;;;;1548101;28;83356;-68
2022/04/21 04:13:44;;;;;;;;;16.67;16.67;;;;;;;;1547977;28;83482;-67
2022/04/21 04:14:29;;;;;;;;;15.33;13.67;;;;;;;;1547804;28;83329;-67
2022/04/21 04:15:14;;;;;;;;;14.00;13.33;;;;;;;;1545300;28;83776;-67
2022/04/21 04:16:00;;;;;;;;;15.00;15.00;;;;;;;;1542058;28;84237;-67
2022/04/21 04:16:45;;;;;;;;;12.33;11.00;;;;;;;;1546893;28;83715;-67
2022/04/21 04:17:30;;;;;;;;;14.67;14.00;;;;;;;;1542759;28;83878;-67
2022/04/21 04:18:16;;;;;;;;;18.67;17.33;;;;;;;;1541897;28;83104;-67
2022/04/21 04:19:05;;;;;;;;;15.67;15.67;;;;;;;;1541920;28;83822;-67
2022/04/21 04:19:50;;;;;;;;;12.25;12.25;;;;;;;;1541955;28;84016;-67
2022/04/21 04:20:35;;;;;;;;;15.00;14.00;;;;;;;;1541928;28;83710;-67
2022/04/21 04:21:20;;;;;;;;;12.67;12.67;;;;;;;;1541547;28;83129;-67
2022/04/21 04:22:06;;;;;;;;;17.00;17.00;;;;;;;;1541859;28;83263;-67
2022/04/21 04:22:51;;;;;;;;;16.00;16.00;;;;;;;;1541347;28;83799;-67
2022/04/21 04:23:36;;;;;;;;;14.67;14.67;;;;;;;;1541812;28;83995;-67
2022/04/21 04:24:21;;;;;;;;;16.67;16.67;;;;;;;;1541688;28;83897;-67
2022/04/21 04:25:09;;;;;;;;;12.00;12.00;;;;;;;;1541737;28;84005;-67
2022/04/21 04:25:54;;;;;;;;;14.00;14.00;;;;;;;;1541831;28;83988;-67
2022/04/21 04:26:39;;;;;;;;;16.67;16.67;;;;;;;;1542247;28;84144;-67
2022/04/21 04:27:25;;;;;;;;;16.33;15.67;;;;;;;;1547073;28;83920;-68
2022/04/21 04:28:10;;;;;;;;;14.67;14.67;;;;;;;;1547963;28;83922;-68
2022/04/21 04:28:55;;;;;;;;;16.33;15.33;;;;;;;;1547968;28;83756;-67
2022/04/21 04:29:40;;;;;;;;;15.00;15.00;;;;;;;;1548096;28;83474;-67
2022/04/21 04:30:26;;;;;;;;;17.00;17.00;;;;;;;;1547930;28;83817;-67
2022/04/21 04:31:11;;;;;;;;;14.67;14.67;;;;;;;;1547953;28;83970;-67
2022/04/21 04:31:57;;;;;;;;;9.33;9.33;;;;;;;;1546870;28;84001;-67
2022/04/21 04:32:42;;;;;;;;;10.50;10.50;;;;;;;;1547988;28;83918;-67
2022/04/21 04:33:27;;;;;;;;;16.00;16.00;;;;;;;;1547883;28;83999;-67
2022/04/21 04:34:14;;;;;;;;;14.00;13.67;;;;;;;;1547742;28;83933;-67
2022/04/21 04:34:59;;;;;;;;;17.00;17.00;;;;;;;;1547940;28;83679;-67
2022/04/21 04:35:44;;;;;;;;;14.67;14.67;;;;;;;;1547729;28;83921;-67
2022/04/21 04:36:29;;;;;;;;;13.33;13.33;;;;;;;;1547872;28;83811;-67
2022/04/21 04:37:15;;;;;;;;;14.33;14.33;;;;;;;;1550464;28;82942;-67
2022/04/21 04:38:00;;;;;;;;;15.33;15.33;;;;;;;;1547911;28;83399;-67
2022/04/21 04:38:48;;;;;;;;;13.33;13.33;;;;;;;;1548023;28;83397;-67
2022/04/21 04:39:33;;;;;;;;;13.00;13.00;;;;;;;;1547850;28;83484;-67
2022/04/21 04:40:19;;;;;;;;;13.00;13.00;;;;;;;;1553013;28;83499;-67
2022/04/21 04:42:17;;;;;;;;;12.25;12.25;;;;;;;;1547192;28;83301;-68
2022/04/21 04:43:03;;;;;;;;;12.50;12.50;;;;;;;;1546879;28;84805;-68
2022/04/21 04:43:48;;;;;;;;;15.67;15.67;;;;;;;;1547990;28;83324;-68
2022/04/21 04:44:34;;;;;;;;;12.00;12.00;;;;;;;;1547889;28;83379;-68
2022/04/21 04:46:35;;;;;;;;;18.50;18.50;;;;;;;;1547549;28;83265;-67
2022/04/21 04:47:20;;;;;;;;;13.75;13.75;;;;;;;;1542076;28;83294;-67
2022/04/21 04:48:06;;;;;;;;;16.00;13.33;;;;;;;;1547793;28;83442;-67
2022/04/21 04:48:51;;;;;;;;;20.67;19.33;;;;;;;;1548051;28;83333;-67
2022/04/21 04:49:37;;;;;;;;;14.00;14.00;;;;;;;;1547799;28;83538;-67